Time;durP1;ratioP1;P1;durP2;ratioP2;P2;SDS_P1;SDS_P2;PMS_P1;PMS_P2;Temp;Humidity;BMP_temperature;BMP_pressure;BME280_temperature;BME280_humidity;BME280_pressure;Samples;Min_cycle;Max_cycle;Signal;HPM_P1;HPM_P2
2023/03/28 00:02:20;;;;;;;0.40;0.40;;;;;;;4.47;62.02;102068.59;5098111;29;20063;-85
2023/03/28 00:04:51;;;;;;;1.45;1.35;;;;;;;4.48;61.76;102065.16;5094895;29;20122;-87
2023/03/28 00:07:22;;;;;;;0.30;0.30;;;;;;;4.38;62.71;102074.50;5132612;28;20035;-84
2023/03/28 00:09:52;;;;;;;0.30;0.30;;;;;;;4.40;62.31;102070.22;5133273;28;20043;-88
2023/03/28 00:12:23;;;;;;;0.30;0.30;;;;;;;4.39;62.49;102071.06;5099013;29;20031;-87
2023/03/28 00:14:56;;;;;;;0.38;0.38;;;;;;;4.30;62.41;102068.28;5116824;28;20039;-87
2023/03/28 00:17:26;;;;;;;0.40;0.40;;;;;;;4.34;62.03;102070.06;5112508;28;20032;-87
2023/03/28 00:19:57;;;;;;;0.35;0.35;;;;;;;4.33;62.67;102070.06;5111092;28;20126;-85
2023/03/28 00:22:29;;;;;;;0.55;0.55;;;;;;;4.16;63.07;102075.78;5114331;29;20031;-87
2023/03/28 00:24:59;;;;;;;0.30;0.30;;;;;;;4.15;63.49;102080.94;5099086;28;20054;-86
2023/03/28 00:27:32;;;;;;;0.30;0.30;;;;;;;4.28;62.77;102082.09;5114684;29;21303;-86
2023/03/28 00:30:04;;;;;;;0.40;0.40;;;;;;;4.27;62.13;102073.41;5114072;28;20050;-87
2023/03/28 00:32:35;;;;;;;0.52;0.52;;;;;;;4.27;62.34;102081.19;5094247;29;20030;-86
2023/03/28 00:35:06;;;;;;;0.30;0.30;;;;;;;4.26;62.32;102079.44;5110524;28;20047;-86
2023/03/28 00:37:36;;;;;;;0.30;0.30;;;;;;;4.22;62.43;102077.63;5128390;28;20034;-87
2023/03/28 00:40:08;;;;;;;1.45;1.30;;;;;;;4.22;62.55;102078.50;5099784;28;20040;-85
2023/03/28 00:42:42;;;;;;;1.15;1.15;;;;;;;4.22;62.48;102077.63;5082589;29;20031;-87
2023/03/28 00:45:12;;;;;;;0.98;0.98;;;;;;;4.16;62.53;102077.50;5115259;28;20042;-85
2023/03/28 00:48:01;;;;;;;0.95;0.95;;;;;;;4.19;62.55;102074.97;5113149;29;20245;-87
2023/03/28 00:50:45;;;;;;;0.40;0.40;;;;;;;4.03;63.17;102076.38;5094535;28;20043;-86
2023/03/28 00:53:20;;;;;;;0.25;0.25;;;;;;;4.07;63.16;102075.56;5104145;29;20268;-86
2023/03/28 00:56:03;;;;;;;0.73;0.73;;;;;;;4.08;63.53;102075.63;5112663;28;20085;-85
2023/03/28 00:58:40;;;;;;;1.03;1.03;;;;;;;4.09;63.15;102072.16;5121541;28;20452;-86
2023/03/28 01:01:14;;;;;;;0.40;0.40;;;;;;;4.01;63.30;102083.25;5084428;28;20043;-86
2023/03/28 01:03:55;;;;;;;0.40;0.40;;;;;;;4.02;63.06;102075.47;5099419;29;20031;-86
2023/03/28 01:06:25;;;;;;;1.02;1.02;;;;;;;4.07;62.99;102081.66;5098652;28;20074;-86
2023/03/28 01:08:56;;;;;;;0.70;0.70;;;;;;;4.02;63.05;102075.47;5119638;28;20063;-86
2023/03/28 01:11:27;;;;;;;0.40;0.40;;;;;;;4.01;63.37;102067.66;5097102;29;20094;-86
2023/03/28 01:14:01;;;;;;;0.50;0.50;;;;;;;4.05;62.99;102072.94;5108805;29;20027;-86
2023/03/28 01:16:31;;;;;;;;;;;;;;;4.07;62.98;102072.97;5082975;28;20061;-86
2023/03/28 01:19:03;;;;;;;0.40;0.40;;;;;;;3.96;63.10;102064.09;5083592;29;19918;-85
2023/03/28 01:22:05;;;;;;;0.30;0.30;;;;;;;3.98;62.96;102063.28;5110684;28;20047;-86
2023/03/28 01:24:57;;;;;;;0.60;0.60;;;;;;;4.04;62.32;102063.41;5094548;28;20042;-86
2023/03/28 01:27:42;;;;;;;0.30;0.30;;;;;;;4.01;63.19;102062.47;5098577;29;20031;-85
2023/03/28 01:30:32;;;;;;;0.55;0.52;;;;;;;3.98;63.19;102063.28;5093316;28;20058;-86
2023/03/28 01:33:25;;;;;;;0.30;0.30;;;;;;;3.92;63.37;102065.75;5105128;29;20390;-84
2023/03/28 01:36:04;;;;;;;0.30;0.30;;;;;;;3.88;63.42;102066.50;5100961;28;20051;-85
2023/03/28 01:38:59;;;;;;;0.30;0.30;;;;;;;3.93;62.29;102064.88;5098798;29;20115;-86
2023/03/28 01:41:57;;;;;;;0.40;0.40;;;;;;;3.91;62.77;102066.59;5109546;28;20703;-86
2023/03/28 01:44:37;;;;;;;0.70;0.70;;;;;;;3.88;63.04;102061.31;5114099;28;20093;-86
2023/03/28 01:47:33;;;;;;;1.27;0.75;;;;;;;3.89;63.17;102068.25;5115282;28;20038;-85
2023/03/28 01:50:29;;;;;;;0.60;0.60;;;;;;;3.85;63.55;102061.22;5082592;29;20294;-86
2023/03/28 01:53:22;;;;;;;0.40;0.40;;;;;;;3.78;63.55;102063.69;5119828;28;20027;-86
2023/03/28 01:56:14;;;;;;;0.47;0.47;;;;;;;3.76;63.14;102062.78;5113686;28;20039;-84
2023/03/28 01:58:54;;;;;;;0.35;0.35;;;;;;;3.79;63.15;102062.00;5115324;29;20035;-85
2023/03/28 02:01:35;;;;;;;0.80;0.80;;;;;;;3.80;63.36;102057.66;5080517;29;20047;-86
2023/03/28 02:04:13;;;;;;;0.50;0.50;;;;;;;3.35;65.40;102067.88;5093887;28;20046;-85
2023/03/28 02:06:46;;;;;;;0.40;0.40;;;;;;;3.39;64.62;102068.84;5097598;29;20345;-85
2023/03/28 02:09:21;;;;;;;0.52;0.52;;;;;;;3.35;64.90;102072.19;5101739;28;20037;-85
2023/03/28 02:11:57;;;;;;;3.85;2.97;;;;;;;3.18;65.63;102064.00;5107955;28;20035;-86
2023/03/28 02:14:36;;;;;;;0.50;0.50;;;;;;;2.99;66.47;102060.94;5121138;28;20496;-86
2023/03/28 02:17:14;;;;;;;0.30;0.30;;;;;;;3.22;65.39;102060.63;5113589;29;20045;-85
2023/03/28 02:19:53;;;;;;;0.40;0.40;;;;;;;3.27;65.20;102051.25;5108876;29;20123;-85
2023/03/28 02:22:37;;;;;;;1.40;1.33;;;;;;;3.40;64.53;102055.91;5081591;29;20046;-86
2023/03/28 02:25:08;;;;;;;0.95;0.95;;;;;;;3.31;65.40;102053.94;5094335;29;20035;-86
2023/03/28 02:27:41;;;;;;;0.50;0.50;;;;;;;3.32;65.69;102052.25;5119905;28;20023;-85
2023/03/28 02:30:12;;;;;;;10.80;2.05;;;;;;;3.22;65.54;102042.47;5112666;28;20418;-86
2023/03/28 02:32:49;;;;;;;0.40;0.40;;;;;;;3.23;64.96;102052.03;5112281;29;20042;-86
2023/03/28 02:35:26;;;;;;;1.27;0.55;;;;;;;3.19;65.58;102050.19;5101198;28;20046;-86
2023/03/28 02:38:13;;;;;;;0.30;0.30;;;;;;;3.31;64.80;102047.91;5083432;29;20039;-83
2023/03/28 02:41:09;;;;;;;0.30;0.30;;;;;;;3.35;64.89;102048.84;5084973;28;20043;-85
2023/03/28 02:43:48;;;;;;;3.70;2.15;;;;;;;3.38;64.44;102042.00;5081774;29;20543;-84
2023/03/28 02:46:19;;;;;;;0.30;0.30;;;;;;;3.44;64.26;102043.88;5100826;28;20075;-84
2023/03/28 02:48:59;;;;;;;0.30;0.30;;;;;;;3.40;64.83;102044.63;5114612;29;20035;-84
2023/03/28 02:51:40;;;;;;;0.30;0.30;;;;;;;3.36;65.13;102043.69;5106459;28;20054;-86
2023/03/28 02:54:43;;;;;;;0.93;0.93;;;;;;;3.35;64.31;102044.53;5107740;28;20122;-86
2023/03/28 02:57:23;;;;;;;0.50;0.50;;;;;;;3.36;64.72;102051.47;5107982;29;20074;-85
2023/03/28 03:00:10;;;;;;;0.52;0.52;;;;;;;3.28;65.17;102051.31;5081473;28;20714;-86
2023/03/28 03:02:42;;;;;;;0.30;0.30;;;;;;;3.33;64.53;102046.22;5109080;29;20090;-85
2023/03/28 03:05:13;;;;;;;0.40;0.40;;;;;;;3.33;65.27;102045.34;5133726;28;20063;-84
2023/03/28 03:07:43;;;;;;;0.93;0.93;;;;;;;3.24;65.10;102048.59;5108672;29;20063;-86
2023/03/28 03:10:15;;;;;;;0.30;0.30;;;;;;;3.33;65.34;102053.13;5100367;28;20035;-86
2023/03/28 03:12:46;;;;;;;0.70;0.70;;;;;;;3.30;65.31;102056.53;5115103;29;20023;-86
2023/03/28 03:15:17;;;;;;;0.45;0.45;;;;;;;3.20;65.29;102058.03;5114677;28;20031;-85
2023/03/28 03:17:47;;;;;;;0.30;0.30;;;;;;;3.12;65.60;102052.63;5092743;29;20035;-85
2023/03/28 03:20:18;;;;;;;0.47;0.45;;;;;;;2.89;66.61;102059.84;5122738;28;20626;-85
2023/03/28 03:22:48;;;;;;;0.40;0.40;;;;;;;2.96;65.97;102059.16;5114139;28;20407;-86
2023/03/28 03:25:19;;;;;;;4.75;1.73;;;;;;;2.75;67.38;102055.97;5111059;28;20642;-85
2023/03/28 03:27:49;;;;;;;1.52;1.42;;;;;;;2.82;67.04;102061.38;5102840;29;20090;-84
2023/03/28 03:30:20;;;;;;;0.82;0.82;;;;;;;2.30;68.52;102067.72;5112821;28;20066;-84
2023/03/28 03:32:50;;;;;;;0.40;0.40;;;;;;;2.58;67.92;102059.00;5099362;29;20546;-86
2023/03/28 03:35:21;;;;;;;1.15;1.15;;;;;;;2.46;68.06;102064.72;5115672;28;20035;-86
2023/03/28 03:37:52;;;;;;;0.30;0.30;;;;;;;2.56;67.77;102060.69;5127623;29;20035;-85
2023/03/28 03:40:22;;;;;;;0.40;0.40;;;;;;;2.61;67.35;102063.38;5121531;28;20051;-82
2023/03/28 03:42:52;;;;;;;0.38;0.38;;;;;;;2.74;67.12;102057.72;5103211;29;20655;-83
2023/03/28 03:45:23;;;;;;;0.60;0.60;;;;;;;2.86;66.39;102054.56;5104214;28;20426;-86
2023/03/28 03:47:53;;;;;;;0.50;0.50;;;;;;;2.89;66.32;102062.44;5102270;29;20028;-85
2023/03/28 03:50:24;;;;;;;0.30;0.30;;;;;;;2.80;66.81;102059.59;5101596;28;20047;-87
2023/03/28 03:52:56;;;;;;;0.57;0.57;;;;;;;2.66;67.26;102059.22;5119493;29;20039;-85
2023/03/28 03:55:26;;;;;;;0.30;0.30;;;;;;;2.67;67.31;102066.16;5092483;29;20076;-85
2023/03/28 03:57:57;;;;;;;0.40;0.40;;;;;;;2.41;68.00;102065.41;5126838;28;20197;-86
2023/03/28 04:00:27;;;;;;;0.55;0.55;;;;;;;2.50;68.09;102065.69;5089309;29;20442;-85
2023/03/28 04:03:00;;;;;;;1.50;1.20;;;;;;;2.58;67.85;102068.50;5101794;29;20031;-86
2023/03/28 04:05:31;;;;;;;0.40;0.40;;;;;;;2.51;68.03;102070.03;5116625;28;20371;-86
2023/03/28 04:08:01;;;;;;;0.40;0.40;;;;;;;2.59;67.88;102065.06;5105977;29;20035;-86
2023/03/28 04:10:34;;;;;;;4.78;1.13;;;;;;;2.57;68.07;102061.56;5094734;28;20043;-86
2023/03/28 04:13:04;;;;;;;0.40;0.40;;;;;;;2.69;67.37;102061.88;5100123;29;20037;-85
2023/03/28 04:15:35;;;;;;;1.00;1.00;;;;;;;2.76;67.53;102065.50;5096872;29;20515;-86
2023/03/28 04:18:05;;;;;;;2.70;1.27;;;;;;;2.81;66.62;102071.72;5100478;29;20042;-87
2023/03/28 04:20:39;;;;;;;0.30;0.30;;;;;;;2.85;66.63;102060.56;5116812;28;20078;-84
2023/03/28 04:23:09;;;;;;;1.17;1.08;;;;;;;2.90;66.74;102068.47;5098813;29;20163;-84
2023/03/28 04:25:40;;;;;;;0.60;0.60;;;;;;;2.91;66.17;102072.84;5102668;28;20052;-84
2023/03/28 04:28:11;;;;;;;0.50;0.50;;;;;;;2.91;66.74;102068.50;5118362;28;20114;-84
2023/03/28 04:30:42;;;;;;;1.85;0.90;;;;;;;2.95;66.15;102074.66;5101056;28;20043;-85
2023/03/28 04:33:12;;;;;;;0.52;0.52;;;;;;;2.96;66.25;102071.22;5082381;29;20031;-86
2023/03/28 04:35:43;;;;;;;0.30;0.30;;;;;;;3.00;65.99;102078.25;5106958;28;20039;-85
2023/03/28 04:38:16;;;;;;;0.88;0.70;;;;;;;2.98;66.02;102072.16;5116145;28;20031;-83
2023/03/28 04:40:48;;;;;;;0.40;0.40;;;;;;;2.97;65.62;102073.88;5100806;28;20046;-85
2023/03/28 04:43:19;;;;;;;0.40;0.40;;;;;;;2.95;65.77;102074.66;5086061;29;20126;-85
2023/03/28 04:45:49;;;;;;;11.50;1.73;;;;;;;2.94;66.11;102072.88;5084485;29;20035;-86
2023/03/28 04:48:21;;;;;;;0.88;0.88;;;;;;;2.98;65.75;102074.75;5099965;29;20023;-84
2023/03/28 04:50:53;;;;;;;0.30;0.30;;;;;;;2.99;65.14;102073.91;5097542;28;20098;-85
2023/03/28 04:53:23;;;;;;;0.40;0.40;;;;;;;2.96;65.78;102074.72;5098540;29;20027;-85
2023/03/28 04:55:54;;;;;;;0.30;0.30;;;;;;;2.92;65.69;102069.41;5112851;28;20043;-85
2023/03/28 04:58:24;;;;;;;0.68;0.68;;;;;;;2.94;65.41;102083.25;5085542;29;20031;-85
2023/03/28 05:00:55;;;;;;;0.30;0.30;;;;;;;2.93;65.54;102081.53;5076215;28;20376;-84
2023/03/28 05:03:25;;;;;;;4.07;3.70;;;;;;;2.93;65.73;102076.34;5114873;29;20027;-85
2023/03/28 05:05:56;;;;;;;2.97;2.55;;;;;;;2.90;65.75;102081.44;5131486;28;20110;-85
2023/03/28 05:08:26;;;;;;;2.40;2.22;;;;;;;2.91;65.93;102080.59;5100940;29;20110;-85
2023/03/28 05:10:57;;;;;;;0.30;0.30;;;;;;;2.89;65.51;102080.56;5093288;29;20149;-85
2023/03/28 05:13:27;;;;;;;0.47;0.47;;;;;;;2.87;65.51;102087.44;5114470;29;20058;-85
2023/03/28 05:15:58;;;;;;;0.40;0.40;;;;;;;2.89;65.87;102087.47;5143170;28;20079;-84
2023/03/28 05:18:28;;;;;;;0.35;0.35;;;;;;;2.88;65.32;102088.28;5119416;28;20031;-84
2023/03/28 05:20:59;;;;;;;0.40;0.40;;;;;;;2.79;66.02;102078.56;5122445;28;20032;-83
2023/03/28 05:23:29;;;;;;;0.40;0.40;;;;;;;2.82;66.12;102079.53;5142930;28;20039;-82
2023/03/28 05:26:01;;;;;;;0.95;0.95;;;;;;;2.85;65.63;102083.91;5128138;28;20027;-83
2023/03/28 05:28:31;;;;;;;1.15;1.15;;;;;;;2.79;65.08;102087.22;5130398;28;20211;-83
2023/03/28 05:31:02;;;;;;;0.55;0.55;;;;;;;2.81;65.26;102076.91;5104529;28;20062;-84
2023/03/28 05:33:33;;;;;;;0.32;0.32;;;;;;;2.80;65.11;102085.50;5119296;28;20042;-84
2023/03/28 05:36:03;;;;;;;0.30;0.30;;;;;;;2.75;64.92;102085.38;5102462;28;20032;-85
2023/03/28 05:38:34;;;;;;;1.17;1.17;;;;;;;2.73;65.44;102087.06;5086769;29;20035;-84
2023/03/28 05:41:04;;;;;;;0.40;0.40;;;;;;;2.71;66.44;102093.91;5108661;28;20046;-84
2023/03/28 05:43:35;;;;;;;1.67;1.58;;;;;;;2.69;65.71;102095.56;5098020;29;20038;-85
2023/03/28 05:46:06;;;;;;;2.08;1.92;;;;;;;2.71;65.71;102098.22;5082975;29;20039;-84
2023/03/28 05:48:36;;;;;;;1.00;0.82;;;;;;;2.72;65.63;102098.25;5126943;28;20054;-83
2023/03/28 05:51:07;;;;;;;0.50;0.50;;;;;;;2.72;65.63;102100.84;5099546;28;20105;-84
2023/03/28 05:53:37;;;;;;;0.70;0.70;;;;;;;2.71;65.69;102101.69;5098796;29;20575;-84
2023/03/28 05:56:08;;;;;;;0.40;0.40;;;;;;;2.72;65.60;102098.25;5114271;28;20042;-83
2023/03/28 05:58:39;;;;;;;0.30;0.30;;;;;;;2.71;65.82;102104.25;5099584;29;20034;-83
2023/03/28 06:01:11;;;;;;;0.40;0.40;;;;;;;2.71;66.33;102113.78;5089142;28;20043;-83
2023/03/28 06:03:42;;;;;;;0.40;0.40;;;;;;;2.67;65.94;102112.81;5114947;28;20024;-84
2023/03/28 06:06:12;;;;;;;0.70;0.70;;;;;;;2.71;65.88;102112.03;5113887;28;20042;-85
2023/03/28 06:08:42;;;;;;;9.40;2.90;;;;;;;2.70;66.21;102115.47;5114929;28;20042;-84
2023/03/28 06:11:13;;;;;;;1.45;1.35;;;;;;;2.71;65.66;102117.22;5111481;28;20047;-84
2023/03/28 06:13:44;;;;;;;0.40;0.40;;;;;;;2.68;65.63;102117.16;5099893;29;20672;-84
2023/03/28 06:16:14;;;;;;;0.60;0.60;;;;;;;2.70;65.96;102120.66;5077979;28;20050;-84
2023/03/28 06:18:45;;;;;;;19.38;1.95;;;;;;;2.66;66.04;102108.47;5102338;29;20023;-84
2023/03/28 06:21:15;;;;;;;1.02;1.02;;;;;;;2.71;66.12;102112.03;5102276;29;20043;-83
2023/03/28 06:23:45;;;;;;;0.38;0.38;;;;;;;2.70;65.92;102115.47;5136925;28;20103;-83
2023/03/28 06:26:17;;;;;;;1.65;1.33;;;;;;;2.70;66.76;102118.06;5130170;28;20054;-84
2023/03/28 06:28:47;;;;;;;0.88;0.88;;;;;;;2.75;65.78;102124.25;5120428;29;20031;-83
2023/03/28 06:31:18;;;;;;;0.40;0.40;;;;;;;2.75;66.79;102123.38;5102534;28;20174;-84
2023/03/28 06:33:48;;;;;;;0.90;0.90;;;;;;;2.75;67.20;102123.38;5123922;28;20026;-82
2023/03/28 06:36:19;;;;;;;0.95;0.95;;;;;;;2.71;66.95;102121.53;5115658;28;20037;-83
2023/03/28 06:38:51;;;;;;;0.40;0.40;;;;;;;2.77;66.22;102119.97;5095931;29;20050;-84
2023/03/28 06:41:21;;;;;;;0.40;0.40;;;;;;;2.78;66.96;102126.94;5114021;28;20134;-84
2023/03/28 06:43:52;;;;;;;0.73;0.73;;;;;;;2.78;66.75;102129.50;5103074;29;20695;-84
2023/03/28 06:46:22;;;;;;;0.40;0.40;;;;;;;2.77;67.45;102126.88;5103346;28;20048;-83
2023/03/28 06:48:52;;;;;;;0.40;0.40;;;;;;;2.81;66.64;102133.94;5087584;29;20023;-84
2023/03/28 06:51:24;;;;;;;0.30;0.30;;;;;;;2.86;66.86;102137.53;5094813;28;20043;-85
2023/03/28 06:53:54;;;;;;;0.38;0.38;;;;;;;2.82;67.29;102136.56;5096682;29;20035;-85
2023/03/28 06:56:25;;;;;;;0.38;0.38;;;;;;;2.76;68.27;102136.41;5084502;29;20039;-86
2023/03/28 06:58:55;;;;;;;0.40;0.40;;;;;;;2.78;68.58;102131.25;5105521;29;20027;-85
2023/03/28 07:01:26;;;;;;;0.50;0.50;;;;;;;2.77;69.33;102137.25;5105201;28;20213;-85
2023/03/28 07:03:58;;;;;;;0.55;0.55;;;;;;;2.87;68.49;102130.59;5121027;29;20329;-85
2023/03/28 07:06:28;;;;;;;0.45;0.45;;;;;;;2.93;68.09;102134.25;5106364;28;20099;-85
2023/03/28 07:08:59;;;;;;;2.55;1.88;;;;;;;2.90;68.84;102135.88;5120783;28;20054;-85
2023/03/28 07:11:30;;;;;;;0.30;0.30;;;;;;;2.93;68.69;102128.22;5106633;28;20036;-85
2023/03/28 07:14:00;;;;;;;0.30;0.30;;;;;;;2.88;69.04;102135.84;5101256;29;20050;-85
2023/03/28 07:16:31;;;;;;;0.45;0.45;;;;;;;2.93;69.37;102135.97;5117072;28;20215;-85
2023/03/28 07:19:02;;;;;;;0.50;0.50;;;;;;;3.09;68.40;102132.06;5111811;29;20074;-85
2023/03/28 07:21:32;;;;;;;0.30;0.30;;;;;;;3.00;68.62;102143.09;5129769;28;20035;-85
2023/03/28 07:24:03;;;;;;;0.57;0.57;;;;;;;3.12;68.54;102135.63;5076961;29;20032;-86
2023/03/28 07:26:33;;;;;;;0.43;0.43;;;;;;;2.94;69.50;102132.53;5090262;29;20035;-85
2023/03/28 07:29:04;;;;;;;0.40;0.40;;;;;;;2.95;69.84;102132.59;5130035;28;20027;-84
2023/03/28 07:31:34;;;;;;;1.05;1.05;;;;;;;3.00;69.84;102132.72;5077161;29;20031;-84
2023/03/28 07:34:05;;;;;;;0.90;0.75;;;;;;;3.08;69.07;102135.50;5114320;28;20042;-86
2023/03/28 07:36:37;;;;;;;0.40;0.40;;;;;;;3.06;70.36;102139.78;5123455;28;20031;-84
2023/03/28 07:39:09;;;;;;;0.70;0.70;;;;;;;3.16;69.75;102141.75;5112959;28;20052;-85
2023/03/28 07:41:39;;;;;;;0.60;0.60;;;;;;;3.17;70.10;102146.13;5087841;29;20126;-84
2023/03/28 07:44:09;;;;;;;0.30;0.30;;;;;;;3.24;70.00;102144.56;5083697;28;20167;-85
2023/03/28 07:46:40;;;;;;;0.63;0.63;;;;;;;3.26;70.27;102142.91;5109756;28;20466;-85
2023/03/28 07:49:11;;;;;;;0.40;0.40;;;;;;;3.22;70.77;102146.25;5087799;28;20027;-85
2023/03/28 07:51:42;;;;;;;0.38;0.38;;;;;;;3.20;70.74;102153.09;5100554;29;20094;-85
2023/03/28 07:54:16;;;;;;;0.82;0.82;;;;;;;3.23;70.54;102154.06;5079340;28;20031;-84
2023/03/28 07:56:47;;;;;;;0.20;0.20;;;;;;;3.25;70.51;102161.91;5108639;29;20035;-85
2023/03/28 07:59:17;;;;;;;0.82;0.82;;;;;;;3.17;70.42;102168.59;5111148;28;20027;-84
2023/03/28 08:01:48;;;;;;;0.30;0.30;;;;;;;3.17;70.47;102168.59;5135332;29;20147;-84
2023/03/28 08:04:18;;;;;;;0.82;0.82;;;;;;;3.31;70.04;102170.69;5136238;28;20031;-84
2023/03/28 08:06:51;;;;;;;1.35;1.35;;;;;;;3.35;69.87;102166.47;5128020;29;20102;-84
2023/03/28 08:09:21;;;;;;;0.35;0.35;;;;;;;3.35;70.15;102163.88;5104399;28;20035;-84
2023/03/28 08:11:52;;;;;;;0.30;0.30;;;;;;;3.42;70.08;102171.00;5114055;29;20121;-84
2023/03/28 08:14:22;;;;;;;0.50;0.50;;;;;;;3.46;70.24;102172.81;5117434;28;20048;-85
2023/03/28 08:16:52;;;;;;;0.30;0.30;;;;;;;3.47;69.23;102168.53;5117168;28;20027;-85
2023/03/28 08:19:23;;;;;;;0.35;0.35;;;;;;;3.46;69.19;102167.63;5115704;28;20031;-85
2023/03/28 08:21:54;;;;;;;0.43;0.43;;;;;;;3.53;69.38;102176.47;5102297;29;20133;-85
2023/03/28 08:24:25;;;;;;;0.30;0.30;;;;;;;3.53;69.24;102173.88;5097841;28;20139;-85
2023/03/28 08:26:55;;;;;;;0.30;0.30;;;;;;;3.65;68.84;102177.59;5115049;28;20463;-84
2023/03/28 08:29:26;;;;;;;0.30;0.30;;;;;;;3.68;68.35;102173.34;5101637;28;20046;-85
2023/03/28 08:31:56;;;;;;;0.77;0.77;;;;;;;3.72;68.59;102172.59;5111873;29;20122;-86
2023/03/28 08:34:27;;;;;;;0.32;0.32;;;;;;;3.72;68.30;102158.75;5115096;28;20039;-86
2023/03/28 08:36:58;;;;;;;0.30;0.30;;;;;;;3.87;67.89;102158.22;5119404;29;20046;-86
2023/03/28 08:39:29;;;;;;;0.38;0.38;;;;;;;3.85;67.88;102165.09;5113530;28;20051;-86
2023/03/28 08:42:08;;;;;;;0.77;0.77;;;;;;;3.93;67.11;102160.97;5117590;29;20043;-86
2023/03/28 08:44:48;;;;;;;0.30;0.30;;;;;;;3.96;66.72;102168.84;5118277;28;20048;-85
2023/03/28 08:47:25;;;;;;;0.50;0.50;;;;;;;4.06;65.80;102163.03;5118630;29;20054;-84
2023/03/28 08:50:01;;;;;;;0.30;0.30;;;;;;;4.08;65.84;102158.75;5116201;28;20043;-85
2023/03/28 08:52:32;;;;;;;0.45;0.45;;;;;;;4.12;65.90;102174.38;5098746;29;20122;-85
2023/03/28 08:55:26;;;;;;;0.40;0.40;;;;;;;4.12;64.42;102164.00;5093191;28;20539;-83
2023/03/28 08:57:58;;;;;;;0.60;0.60;;;;;;;4.17;65.06;102165.88;5099981;29;20031;-84
2023/03/28 09:00:30;;;;;;;0.30;0.30;;;;;;;4.19;64.75;102176.28;5129101;28;20043;-83
2023/03/28 09:03:00;;;;;;;0.68;0.68;;;;;;;4.25;64.32;102163.44;5109914;29;20612;-83
2023/03/28 09:06:03;;;;;;;0.30;0.30;;;;;;;4.29;64.31;102157.47;5099421;28;20047;-84
2023/03/28 09:09:03;;;;;;;0.30;0.30;;;;;;;4.37;63.29;102161.09;5130727;28;20055;-84
2023/03/28 09:11:41;;;;;;;0.20;0.20;;;;;;;4.38;62.53;102156.81;5111968;28;20047;-83
2023/03/28 09:14:41;;;;;;;0.43;0.43;;;;;;;4.44;61.96;102146.53;5097188;28;20043;-83
2023/03/28 09:17:19;;;;;;;0.40;0.40;;;;;;;4.39;58.84;102143.84;5098344;29;20122;-84
2023/03/28 09:20:11;;;;;;;0.43;0.43;;;;;;;4.44;60.26;102141.34;5096013;28;20787;-86
2023/03/28 09:22:44;;;;;;;0.30;0.30;;;;;;;4.50;57.90;102138.00;5132174;28;20071;-85
2023/03/28 09:25:44;;;;;;;0.50;0.50;;;;;;;4.62;59.75;102143.44;5100061;28;20058;-85
2023/03/28 09:28:34;;;;;;;0.32;0.32;;;;;;;4.63;59.92;102136.53;5121445;29;20165;-83
2023/03/28 09:31:08;;;;;;;0.22;0.22;;;;;;;4.65;59.54;102134.81;5093496;28;20047;-87
2023/03/28 09:33:42;;;;;;;0.63;0.63;;;;;;;4.76;58.81;102127.22;5102179;29;20074;-86
2023/03/28 09:36:15;;;;;;;;;;;;;;;4.78;58.56;102133.34;5101514;28;20102;-85
2023/03/28 09:38:57;;;;;;;0.30;0.30;;;;;;;4.82;57.30;102122.16;5102815;29;19934;-85
2023/03/28 09:41:51;;;;;;;0.30;0.30;;;;;;;4.83;57.70;102123.91;5112892;28;20050;-86
2023/03/28 09:44:27;;;;;;;0.50;0.50;;;;;;;4.93;58.25;102115.41;5110916;28;20082;-85
2023/03/28 09:47:00;;;;;;;2.15;1.95;;;;;;;5.07;58.22;102122.63;5102871;29;20324;-87
2023/03/28 09:49:33;;;;;;;0.45;0.45;;;;;;;5.09;59.41;102111.38;5081680;28;20498;-85
2023/03/28 09:52:14;;;;;;;0.30;0.30;;;;;;;5.27;59.28;102105.63;5101913;29;20032;-85
2023/03/28 09:54:45;;;;;;;0.30;0.30;;;;;;;5.34;58.97;102109.22;5133759;28;20046;-86
2023/03/28 09:57:16;;;;;;;0.30;0.30;;;;;;;5.34;58.50;102101.41;5084871;29;20031;-86
2023/03/28 09:59:50;;;;;;;1.85;0.75;;;;;;;5.35;57.36;102103.16;5110985;28;20147;-85
2023/03/28 10:02:30;;;;;;;0.22;0.22;;;;;;;5.42;57.51;102093.69;5102824;29;20047;-85
2023/03/28 10:05:01;;;;;;;0.20;0.20;;;;;;;5.55;57.86;102098.28;5100784;28;20234;-86
2023/03/28 10:07:41;;;;;;;0.50;0.50;;;;;;;5.57;57.85;102096.59;5104310;29;20028;-87
2023/03/28 10:10:23;;;;;;;0.30;0.30;;;;;;;5.65;57.63;102094.06;5112707;28;20404;-86
2023/03/28 10:13:03;;;;;;;1.08;0.88;;;;;;;5.74;55.32;102093.38;5113859;29;20033;-87
2023/03/28 10:15:55;;;;;;;0.20;0.20;;;;;;;5.79;56.46;102094.28;5102477;28;20062;-86
2023/03/28 10:18:27;;;;;;;0.40;0.40;;;;;;;5.83;56.30;102099.56;5101522;29;20035;-85
2023/03/28 10:21:13;;;;;;;0.45;0.45;;;;;;;5.88;56.64;102084.00;5117416;28;20352;-86
2023/03/28 10:23:49;;;;;;;0.30;0.30;;;;;;;5.93;55.85;102084.94;5094673;29;20178;-86
2023/03/28 10:26:23;;;;;;;0.77;0.77;;;;;;;5.97;55.92;102084.16;5100414;28;20583;-85
2023/03/28 10:28:59;;;;;;;1.17;1.08;;;;;;;6.08;56.04;102075.59;5115740;28;20092;-84
2023/03/28 10:31:31;;;;;;;0.30;0.30;;;;;;;6.13;56.47;102076.56;5082571;29;20067;-85
2023/03/28 10:34:02;;;;;;;0.43;0.43;;;;;;;6.18;55.05;102076.63;5112920;28;20126;-84
2023/03/28 10:36:42;;;;;;;0.30;0.30;;;;;;;6.12;53.52;102070.47;5096850;29;20122;-84
2023/03/28 10:39:23;;;;;;;0.45;0.45;;;;;;;6.23;53.38;102075.84;5115260;28;20039;-85
2023/03/28 10:41:56;;;;;;;0.30;0.30;;;;;;;6.32;53.67;102064.63;5120940;28;20055;-84
2023/03/28 10:44:35;;;;;;;0.30;0.30;;;;;;;6.50;55.27;102063.09;5113910;28;20035;-85
2023/03/28 10:47:16;;;;;;;0.28;0.28;;;;;;;6.51;54.01;102060.50;5133505;29;20019;-84
2023/03/28 10:49:53;;;;;;;0.32;0.32;;;;;;;6.56;53.16;102061.44;5125864;28;20047;-86
2023/03/28 10:52:33;;;;;;;0.30;0.30;;;;;;;6.65;52.92;102052.84;5144110;28;20036;-86
2023/03/28 10:55:22;;;;;;;0.30;0.30;;;;;;;6.75;53.31;102059.91;5129041;28;20050;-86
2023/03/28 10:57:58;;;;;;;0.88;0.85;;;;;;;6.76;51.57;102050.34;5101559;29;20035;-87
2023/03/28 11:01:21;;;;;;;0.68;0.68;;;;;;;6.75;51.33;102043.38;5108552;28;20660;-87
2023/03/28 11:04:04;;;;;;;0.30;0.30;;;;;;;6.72;50.73;102038.13;5085060;29;20051;-85
2023/03/28 11:06:44;;;;;;;0.50;0.50;;;;;;;6.91;52.36;102034.81;5087175;29;20605;-87
2023/03/28 11:09:55;;;;;;;0.30;0.30;;;;;;;7.03;51.27;102033.19;5117795;28;20038;-86
2023/03/28 11:12:44;;;;;;;0.40;0.40;;;;;;;7.04;50.66;102019.28;5112308;29;20051;-86
2023/03/28 11:15:23;;;;;;;0.45;0.45;;;;;;;7.11;49.44;102015.88;5111365;28;20038;-86
2023/03/28 11:18:02;;;;;;;0.20;0.20;;;;;;;7.07;47.55;102011.47;5102149;29;20495;-86
2023/03/28 11:20:52;;;;;;;0.30;0.30;;;;;;;7.08;47.73;102014.13;5130256;28;20039;-86
2023/03/28 11:23:47;;;;;;;0.35;0.35;;;;;;;7.05;47.69;102005.38;5121307;28;20058;-85
2023/03/28 11:26:29;;;;;;;0.30;0.30;;;;;;;7.23;47.47;102004.66;5123971;28;20122;-83
2023/03/28 11:29:26;;;;;;;2.20;1.00;;;;;;;7.27;48.55;102002.94;5131944;28;20028;-85
2023/03/28 11:32:10;;;;;;;0.30;0.30;;;;;;;7.26;46.21;101989.03;5120929;28;20070;-84
2023/03/28 11:34:48;;;;;;;0.47;0.47;;;;;;;7.22;45.39;101988.13;5115342;28;20059;-86
2023/03/28 11:37:26;;;;;;;2.05;1.48;;;;;;;7.34;45.10;101992.56;5114039;29;20119;-85
2023/03/28 11:40:17;;;;;;;0.50;0.50;;;;;;;7.48;46.07;101971.72;5121338;28;20043;-84
2023/03/28 11:42:52;;;;;;;0.30;0.30;;;;;;;7.56;47.45;101967.41;5098899;29;20080;-83
2023/03/28 11:45:46;;;;;;;0.30;0.30;;;;;;;7.61;48.30;101959.59;5114363;28;20038;-83
2023/03/28 11:48:50;;;;;;;0.35;0.35;;;;;;;7.68;45.68;101970.97;5116980;29;20031;-84
2023/03/28 11:51:31;;;;;;;0.80;0.77;;;;;;;7.77;46.62;101959.72;5125194;28;20234;-83
2023/03/28 11:54:10;;;;;;;0.45;0.45;;;;;;;8.05;45.80;101960.69;5145200;28;20027;-83
2023/03/28 11:56:55;;;;;;;0.30;0.30;;;;;;;8.18;45.18;101945.91;5112101;28;20043;-83
2023/03/28 11:59:54;;;;;;;0.40;0.40;;;;;;;8.24;44.78;101945.03;5098967;28;20047;-84
2023/03/28 12:02:46;;;;;;;0.30;0.30;;;;;;;8.21;44.69;101938.06;5127517;28;20040;-84
2023/03/28 12:05:31;;;;;;;0.30;0.30;;;;;;;8.31;44.86;101945.06;5078829;28;20703;-83
2023/03/28 12:08:11;;;;;;;1.27;0.65;;;;;;;8.51;43.43;101933.81;5117600;28;20069;-84
2023/03/28 12:10:48;;;;;;;1.65;1.10;;;;;;;8.38;44.67;101930.25;5113837;28;20119;-84
2023/03/28 12:13:41;;;;;;;0.30;0.30;;;;;;;8.61;43.55;101930.31;5096414;29;20094;-85
2023/03/28 12:16:20;;;;;;;0.30;0.30;;;;;;;8.61;42.38;101913.75;5098056;28;20055;-84